createdAt,value
2023-03-02T00:02:22.587Z,89.70
2023-03-02T00:06:25.885Z,89.60
2023-03-02T00:10:30.281Z,89.70
2023-03-02T00:14:33.069Z,90.10
2023-03-02T00:18:35.842Z,90.40
2023-03-02T00:22:39.200Z,90.70
2023-03-02T00:27:09.470Z,91.20
2023-03-02T00:31:16.045Z,91.30
2023-03-02T00:35:19.114Z,91.80
2023-03-02T00:39:21.920Z,91.60
2023-03-02T00:43:27.991Z,91.70
2023-03-02T00:47:31.221Z,91.80
2023-03-02T00:51:34.367Z,91.90
2023-03-02T00:55:38.036Z,91.70
2023-03-02T00:59:42.868Z,91.80
2023-03-02T01:03:58.331Z,92.10
2023-03-02T01:08:01.195Z,92.20
2023-03-02T01:12:05.492Z,92.40
2023-03-02T01:16:09.876Z,92.40
2023-03-02T01:20:13.417Z,92.60
2023-03-02T01:24:16.211Z,92.60
2023-03-02T01:28:18.946Z,92.50
2023-03-02T01:32:23.114Z,92.60
2023-03-02T01:36:25.934Z,92.80
2023-03-02T01:40:28.969Z,92.80
2023-03-02T01:44:41.670Z,92.60
2023-03-02T01:48:49.582Z,92.70
2023-03-02T01:52:59.003Z,93.20
2023-03-02T01:57:04.807Z,93.50
2023-03-02T02:01:15.641Z,93.20
2023-03-02T02:05:25.261Z,93.50
2023-03-02T02:09:30.726Z,93.50
2023-03-02T02:13:33.804Z,93.90
2023-03-02T02:17:36.811Z,93.60
2023-03-02T02:21:41.295Z,93.60
2023-03-02T02:25:55.368Z,94.00
2023-03-02T02:29:59.180Z,93.90
2023-03-02T02:34:15.002Z,94.30
2023-03-02T02:38:21.476Z,94.30
2023-03-02T02:42:31.268Z,94.30
2023-03-02T02:46:35.515Z,94.30
2023-03-02T02:50:39.026Z,94.50
2023-03-02T02:54:44.202Z,94.30
2023-03-02T02:58:51.765Z,94.70
2023-03-02T03:02:59.691Z,94.60
2023-03-02T03:07:05.123Z,94.80
2023-03-02T03:11:08.814Z,95.00
2023-03-02T03:15:14.888Z,95.30
2023-03-02T03:19:21.067Z,95.40
2023-03-02T03:23:23.992Z,95.30
2023-03-02T03:27:27.004Z,95.00
2023-03-02T03:31:31.358Z,94.50
2023-03-02T03:35:37.030Z,94.30
2023-03-02T03:39:41.358Z,94.40
2023-03-02T03:43:44.816Z,94.70
2023-03-02T03:47:49.224Z,95.00
2023-03-02T03:51:52.729Z,95.30
2023-03-02T03:55:56.884Z,95.20
2023-03-02T03:59:59.843Z,95.00
2023-03-02T04:04:05.835Z,95.00
2023-03-02T04:08:09.022Z,95.00
2023-03-02T04:12:13.277Z,95.00
2023-03-02T04:16:20.510Z,95.00
2023-03-02T04:20:26.577Z,94.90
2023-03-02T04:24:31.277Z,94.90
2023-03-02T04:28:37.469Z,95.00
2023-03-02T04:32:40.953Z,95.00
2023-03-02T04:36:46.396Z,95.10
2023-03-02T04:40:51.032Z,95.20
2023-03-02T04:44:53.868Z,95.20
2023-03-02T04:48:56.897Z,95.20
2023-03-02T04:53:00.993Z,95.20
2023-03-02T04:57:08.230Z,95.30
2023-03-02T05:01:12.218Z,95.70
2023-03-02T05:05:17.190Z,95.70
2023-03-02T05:09:27.063Z,95.80
2023-03-02T05:13:30.941Z,95.50
2023-03-02T05:17:33.727Z,95.30
2023-03-02T05:21:38.250Z,95.10
2023-03-02T05:25:42.476Z,94.80
2023-03-02T05:29:45.243Z,94.60
2023-03-02T05:33:48.315Z,94.70
2023-03-02T05:37:51.603Z,94.70
2023-03-02T05:41:55.846Z,94.80
2023-03-02T05:46:00.441Z,94.70
2023-03-02T05:50:03.305Z,94.60
2023-03-02T05:54:06.187Z,94.80
2023-03-02T05:58:14.341Z,95.00
2023-03-02T06:02:17.353Z,95.00
2023-03-02T06:06:20.186Z,95.00
2023-03-02T06:10:23.557Z,95.00
2023-03-02T06:14:28.134Z,95.00
2023-03-02T06:18:31.068Z,95.20
2023-03-02T06:22:33.822Z,95.20
2023-03-02T06:26:36.547Z,95.20
2023-03-02T06:30:40.616Z,95.40
2023-03-02T06:34:43.622Z,95.70
2023-03-02T06:38:46.657Z,95.90
2023-03-02T06:42:49.687Z,95.60
2023-03-02T06:46:53.798Z,95.50
2023-03-02T06:50:56.557Z,95.80
2023-03-02T06:54:59.303Z,95.90
2023-03-02T06:59:02.092Z,96.00
2023-03-02T07:03:06.145Z,96.10
2023-03-02T07:07:08.836Z,96.00
2023-03-02T07:11:13.382Z,96.40
2023-03-02T07:15:17.418Z,96.50
2023-03-02T07:19:21.460Z,96.30
2023-03-02T07:27:27.413Z,95.40
2023-03-02T07:31:30.364Z,95.70
2023-03-02T07:35:34.676Z,95.20
2023-03-02T07:39:37.441Z,94.70
2023-03-02T07:47:43.359Z,92.20
2023-03-02T07:51:47.464Z,92.20
2023-03-02T07:55:50.180Z,90.90
2023-03-02T07:59:52.894Z,89.90
2023-03-02T08:03:55.581Z,86.50
2023-03-02T08:07:59.594Z,82.40
2023-03-02T08:12:02.309Z,80.60
2023-03-02T08:16:08.210Z,80.40
2023-03-02T08:20:12.417Z,76.70
2023-03-02T08:24:16.471Z,73.40
2023-03-02T08:28:19.265Z,71.60
2023-03-02T08:32:22.153Z,70.20
2023-03-02T08:36:24.881Z,67.70
2023-03-02T08:40:29.184Z,66.70
2023-03-02T08:44:31.883Z,64.50
2023-03-02T08:48:34.993Z,64.30
2023-03-02T08:52:37.718Z,63.60
2023-03-02T08:56:44.359Z,61.20
2023-03-02T09:00:47.177Z,60.20
2023-03-02T09:04:49.986Z,58.10
2023-03-02T09:08:52.935Z,57.10
2023-03-02T09:12:56.962Z,56.00
2023-03-02T09:17:00.480Z,53.70
2023-03-02T09:21:03.754Z,54.60
2023-03-02T09:25:07.731Z,52.80
2023-03-02T09:29:11.792Z,52.20
2023-03-02T09:33:14.580Z,52.30
2023-03-02T09:37:17.509Z,51.70
2023-03-02T09:42:02.467Z,52.20
2023-03-02T09:46:17.015Z,51.70
2023-03-02T09:50:32.680Z,51.90
2023-03-02T09:54:38.002Z,50.30
2023-03-02T09:58:42.823Z,49.70
2023-03-02T10:02:49.714Z,49.70
2023-03-02T10:06:56.817Z,49.30
2023-03-02T10:11:06.424Z,49.40
2023-03-02T10:15:15.220Z,48.60
2023-03-02T10:19:25.987Z,48.30
2023-03-02T10:23:39.716Z,49.20
2023-03-02T10:27:45.297Z,48.90
2023-03-02T10:31:52.755Z,49.20
2023-03-02T10:35:56.907Z,50.20
2023-03-02T10:39:59.638Z,50.10
2023-03-02T10:44:07.217Z,50.30
2023-03-02T10:48:12.057Z,49.60
2023-03-02T10:52:18.430Z,49.60
2023-03-02T10:56:22.268Z,49.60
2023-03-02T11:00:27.988Z,50.10
2023-03-02T11:04:31.616Z,49.40
2023-03-02T11:08:35.703Z,49.60
2023-03-02T11:12:38.498Z,50.80
2023-03-02T11:16:41.265Z,50.60
2023-03-02T11:20:47.559Z,50.10
2023-03-02T11:24:56.984Z,50.80
2023-03-02T11:29:04.055Z,50.80
2023-03-02T11:33:12.989Z,50.80
2023-03-02T11:37:19.219Z,52.20
2023-03-02T11:41:29.694Z,52.60
2023-03-02T11:45:36.001Z,52.10
2023-03-02T11:49:43.337Z,52.80
2023-03-02T11:53:50.257Z,53.00
2023-03-02T11:57:57.771Z,52.40
2023-03-02T12:02:01.871Z,53.00
2023-03-02T12:06:07.635Z,53.20
2023-03-02T12:10:28.426Z,53.30
2023-03-02T12:14:39.660Z,53.30
2023-03-02T12:18:45.813Z,53.00
2023-03-02T12:22:48.602Z,53.20
2023-03-02T12:27:01.764Z,53.60
2023-03-02T12:31:12.048Z,53.80
2023-03-02T12:35:19.003Z,53.50
2023-03-02T12:39:33.361Z,53.70
2023-03-02T12:43:37.670Z,53.60
2023-03-02T12:47:46.401Z,53.70
2023-03-02T12:51:52.855Z,53.20
2023-03-02T12:55:55.961Z,53.60
2023-03-02T13:00:01.713Z,54.30
2023-03-02T13:04:05.919Z,54.20
2023-03-02T13:08:15.071Z,54.10
2023-03-02T13:12:17.838Z,54.60
2023-03-02T13:16:23.022Z,54.80
2023-03-02T13:20:30.316Z,54.70
2023-03-02T13:24:37.575Z,54.30
2023-03-02T13:28:41.202Z,54.20
2023-03-02T13:32:44.046Z,54.80
2023-03-02T13:36:48.182Z,55.00
2023-03-02T13:40:52.160Z,54.60
2023-03-02T13:44:54.967Z,55.10
2023-03-02T13:49:14.476Z,55.20
2023-03-02T13:53:18.677Z,55.50
2023-03-02T13:57:30.716Z,55.40
2023-03-02T14:01:33.612Z,55.20
2023-03-02T14:05:36.386Z,55.50
2023-03-02T14:09:40.512Z,55.30
2023-03-02T14:13:46.124Z,55.10
2023-03-02T14:17:49.977Z,55.20
2023-03-02T14:21:52.798Z,55.50
2023-03-02T14:25:57.949Z,56.10
2023-03-02T14:30:01.679Z,56.30
2023-03-02T14:34:04.536Z,56.20
2023-03-02T14:38:07.322Z,56.40
2023-03-02T14:42:14.186Z,56.30
2023-03-02T14:46:17.029Z,56.90
2023-03-02T14:50:19.792Z,57.10
2023-03-02T14:54:22.922Z,57.70
2023-03-02T14:58:31.939Z,56.50
2023-03-02T15:02:34.862Z,57.00
2023-03-02T15:06:40.477Z,57.00
2023-03-02T15:10:43.875Z,57.10
2023-03-02T15:14:47.958Z,56.90
2023-03-02T15:18:51.656Z,57.20
2023-03-02T15:22:54.401Z,56.60
2023-03-02T15:26:57.179Z,57.10
2023-03-02T15:31:08.151Z,57.30
2023-03-02T15:35:12.442Z,56.50
2023-03-02T15:39:16.684Z,55.60
2023-03-02T15:43:19.476Z,55.30
2023-03-02T15:47:23.851Z,54.80
2023-03-02T15:51:26.723Z,54.80
2023-03-02T15:55:29.449Z,54.40
2023-03-02T15:59:32.963Z,53.80
2023-03-02T16:03:37.078Z,54.40
2023-03-02T16:07:39.868Z,54.30
2023-03-02T16:11:42.580Z,54.20
2023-03-02T16:15:45.970Z,53.70
2023-03-02T16:19:50.964Z,54.40
2023-03-02T16:23:54.094Z,55.90
2023-03-02T16:27:56.847Z,58.60
2023-03-02T16:31:59.658Z,61.50
2023-03-02T16:36:04.261Z,63.20
2023-03-02T16:40:08.995Z,65.60
2023-03-02T16:44:13.322Z,65.90
2023-03-02T16:48:16.043Z,66.50
2023-03-02T16:52:20.358Z,67.30
2023-03-02T16:56:23.398Z,68.60
2023-03-02T17:00:27.070Z,70.00
2023-03-02T17:04:29.888Z,71.30
2023-03-02T17:08:34.086Z,72.60
2023-03-02T17:12:39.628Z,73.00
2023-03-02T17:16:42.443Z,73.90
2023-03-02T17:20:45.189Z,74.90
2023-03-02T17:24:49.234Z,75.90
2023-03-02T17:28:52.070Z,77.30
2023-03-02T17:32:54.811Z,78.10
2023-03-02T17:36:57.846Z,79.30
2023-03-02T17:41:04.722Z,80.70
2023-03-02T17:45:08.852Z,80.60
2023-03-02T17:49:11.613Z,81.70
2023-03-02T17:53:14.335Z,82.30
2023-03-02T17:57:22.353Z,83.90
2023-03-02T18:01:25.506Z,84.30
2023-03-02T18:05:28.272Z,85.50
2023-03-02T18:09:31.063Z,86.40
2023-03-02T18:13:35.186Z,87.10
2023-03-02T18:17:37.917Z,88.00
2023-03-02T18:21:41.755Z,88.60
2023-03-02T18:25:45.344Z,89.00
2023-03-02T18:29:49.507Z,90.10
2023-03-02T18:33:55.112Z,90.40
2023-03-02T18:37:58.946Z,90.70
2023-03-02T18:42:02.068Z,91.00
2023-03-02T18:46:19.164Z,91.20
2023-03-02T18:50:40.858Z,92.10
2023-03-02T18:54:44.336Z,92.30
2023-03-02T18:58:51.734Z,92.50
2023-03-02T19:02:59.043Z,92.80
2023-03-02T19:07:03.109Z,93.00
2023-03-02T19:11:07.120Z,93.00
2023-03-02T19:15:11.663Z,93.40
2023-03-02T19:19:16.384Z,93.80
2023-03-02T19:23:32.240Z,94.30
2023-03-02T19:27:35.874Z,94.40
2023-03-02T19:31:39.643Z,94.70
2023-03-02T19:35:44.932Z,94.80
2023-03-02T19:39:47.775Z,95.00
2023-03-02T19:43:55.830Z,95.20
2023-03-02T19:47:59.896Z,95.30
2023-03-02T19:52:11.648Z,95.60
2023-03-02T19:56:18.162Z,96.20
2023-03-02T20:00:25.582Z,96.90
2023-03-02T20:04:31.223Z,96.90
2023-03-02T20:08:39.407Z,97.70
2023-03-02T20:12:42.804Z,97.40
2023-03-02T20:16:47.934Z,97.30
2023-03-02T20:20:51.504Z,97.40
2023-03-02T20:24:57.167Z,97.50
2023-03-02T20:29:02.431Z,97.60
2023-03-02T20:33:07.324Z,97.70
2023-03-02T20:37:11.938Z,98.20
2023-03-02T20:41:20.749Z,98.40
2023-03-02T20:45:26.611Z,98.90
2023-03-02T20:49:32.286Z,99.10
2023-03-02T20:53:37.415Z,99.60
2023-03-02T20:57:44.715Z,99.50
2023-03-02T21:01:51.955Z,99.60
2023-03-02T21:05:57.228Z,99.60
2023-03-02T21:10:04.588Z,99.50
2023-03-02T21:14:14.078Z,99.70
2023-03-02T21:18:17.837Z,99.90
2023-03-02T21:22:24.386Z,99.90
2023-03-02T21:26:27.915Z,99.70
2023-03-02T21:30:34.941Z,99.60
2023-03-02T21:34:38.565Z,99.20
2023-03-02T21:38:42.009Z,98.70
2023-03-02T21:42:45.545Z,99.00
2023-03-02T21:46:50.821Z,98.90
2023-03-02T21:50:53.596Z,99.60
2023-03-02T21:54:56.560Z,99.70
2023-03-02T21:59:02.603Z,99.70
2023-03-02T22:03:07.744Z,99.70
2023-03-02T22:07:11.088Z,99.90
2023-03-02T22:11:20.351Z,99.90
2023-03-02T22:15:24.132Z,99.90
2023-03-02T22:19:30.429Z,99.90
2023-03-02T22:23:33.343Z,99.90
2023-03-02T22:27:36.475Z,99.90
2023-03-02T22:31:42.119Z,99.90
2023-03-02T22:35:46.828Z,99.90
2023-03-02T22:39:53.972Z,99.90
2023-03-02T22:43:57.813Z,99.90
2023-03-02T22:48:01.159Z,99.90
2023-03-02T22:52:14.060Z,99.90
2023-03-02T22:56:30.454Z,99.90
2023-03-02T23:00:40.365Z,99.90
2023-03-02T23:04:43.742Z,99.90
2023-03-02T23:08:48.165Z,99.90
2023-03-02T23:12:51.321Z,99.90
2023-03-02T23:16:58.646Z,99.90
2023-03-02T23:21:01.509Z,99.90
2023-03-02T23:25:09.463Z,99.90
2023-03-02T23:29:16.350Z,99.90
2023-03-02T23:33:19.425Z,99.90
2023-03-02T23:37:22.400Z,99.90
2023-03-02T23:41:26.893Z,99.90
2023-03-02T23:45:30.091Z,99.90
2023-03-02T23:49:36.028Z,99.90
2023-03-02T23:53:45.746Z,99.90
2023-03-02T23:57:50.297Z,99.90
